Time;durP1;ratioP1;P1;durP2;ratioP2;P2;SDS_P1;SDS_P2;PMS_P1;PMS_P2;Temp;Humidity;BMP_temperature;BMP_pressure;BME280_temperature;BME280_humidity;BME280_pressure;Samples;Min_cycle;Max_cycle;Signal;HPM_P1;HPM_P2
2022/09/18 00:01:17;;;;;;;5.00;1.43;;;10.70;99.90;;;;;;5014606;28;20651;-83
2022/09/18 00:03:45;;;;;;;4.60;1.40;;;10.60;99.90;;;;;;5029603;28;20634;-83
2022/09/18 00:06:16;;;;;;;2.57;1.13;;;10.90;99.90;;;;;;5005414;28;20644;-83
2022/09/18 00:08:44;;;;;;;3.63;1.60;;;11.00;99.90;;;;;;5015995;28;20667;-83
2022/09/18 00:11:12;;;;;;;1.67;1.23;;;10.60;99.90;;;;;;5024551;28;20652;-84
2022/09/18 00:13:41;;;;;;;6.50;1.73;;;10.90;99.90;;;;;;5027731;28;20666;-83
2022/09/18 00:16:10;;;;;;;2.67;1.37;;;10.90;99.90;;;;;;5010805;28;21201;-83
2022/09/18 00:18:40;;;;;;;3.90;1.80;;;11.30;99.90;;;;;;5030130;28;20716;-83
2022/09/18 00:21:10;;;;;;;7.17;1.50;;;11.20;99.90;;;;;;5021234;28;21265;-83
2022/09/18 00:23:39;;;;;;;2.77;1.20;;;10.80;99.90;;;;;;5016609;28;20627;-83
2022/09/18 00:26:08;;;;;;;3.10;1.30;;;10.90;99.90;;;;;;5026579;28;20628;-83
2022/09/18 00:28:35;;;;;;;3.83;1.53;;;10.70;99.90;;;;;;5022829;28;20710;-83
2022/09/18 00:31:07;;;;;;;3.30;1.40;;;11.00;99.90;;;;;;5026103;28;20638;-83
2022/09/18 00:33:34;;;;;;;5.00;1.43;;;11.00;99.90;;;;;;5017193;28;21280;-82
2022/09/18 00:36:02;;;;;;;4.00;1.57;;;11.20;99.90;;;;;;5060162;28;20625;-83
2022/09/18 00:38:30;;;;;;;5.17;1.40;;;11.10;99.90;;;;;;5014951;28;21208;-83
2022/09/18 00:40:59;;;;;;;3.70;1.47;;;11.20;99.90;;;;;;5037038;28;20634;-83
2022/09/18 00:43:30;;;;;;;3.23;1.20;;;11.20;99.90;;;;;;5031717;28;20631;-83
2022/09/18 00:46:00;;;;;;;3.47;1.43;;;11.10;99.90;;;;;;5028515;28;20623;-83
2022/09/18 00:48:33;;;;;;;4.10;1.43;;;11.10;99.90;;;;;;5011815;28;20965;-83
2022/09/18 00:51:00;;;;;;;4.77;1.67;;;11.00;99.90;;;;;;5023261;28;20638;-83
2022/09/18 00:53:27;;;;;;;6.47;1.13;;;11.00;99.90;;;;;;5036230;28;20674;-83
2022/09/18 00:55:56;;;;;;;3.97;1.20;;;10.90;99.90;;;;;;5015654;28;20632;-83
2022/09/18 00:58:24;;;;;;;1.80;1.03;;;11.20;99.90;;;;;;5035834;28;20634;-83
2022/09/18 01:00:50;;;;;;;5.03;1.40;;;11.20;99.90;;;;;;5042917;28;21164;-83
2022/09/18 01:03:17;;;;;;;4.80;1.57;;;11.00;99.90;;;;;;5030884;28;21184;-83
2022/09/18 01:05:55;;;;;;;1.50;0.90;;;10.90;99.90;;;;;;5040861;28;21227;-83
2022/09/18 01:08:36;;;;;;;3.10;1.20;;;11.20;99.90;;;;;;5022893;28;20689;-83
2022/09/18 01:11:18;;;;;;;1.33;1.03;;;10.80;99.90;;;;;;5031132;28;20630;-83
2022/09/18 01:13:54;;;;;;;4.67;1.27;;;11.20;99.90;;;;;;5016455;28;20666;-83
2022/09/18 01:16:27;;;;;;;4.30;1.30;;;10.60;99.90;;;;;;5024277;28;20623;-83
2022/09/18 01:19:06;;;;;;;4.20;1.43;;;10.60;99.90;;;;;;5046544;28;20611;-83
2022/09/18 01:21:40;;;;;;;6.30;1.53;;;11.10;99.90;;;;;;5023317;28;20653;-82
2022/09/18 01:24:43;;;;;;;2.93;1.23;;;11.00;99.90;;;;;;5035854;28;20652;-83
2022/09/18 01:27:15;;;;;;;2.40;1.40;;;10.60;99.90;;;;;;5040661;28;20642;-82
2022/09/18 01:29:55;;;;;;;4.90;1.37;;;10.90;99.90;;;;;;5028618;28;20626;-82
2022/09/18 01:32:27;;;;;;;2.57;1.37;;;11.10;99.90;;;;;;5018899;28;20701;-83
2022/09/18 01:35:06;;;;;;;3.73;1.60;;;10.70;99.90;;;;;;5022181;28;20674;-82
2022/09/18 01:37:38;;;;;;;3.73;1.40;;;11.10;99.90;;;;;;5041268;28;20714;-82
2022/09/18 01:40:13;;;;;;;5.27;3.27;;;10.80;99.90;;;;;;5021508;28;20619;-82
2022/09/18 01:42:42;;;;;;;2.97;1.00;;;11.00;99.90;;;;;;5028576;28;21024;-82
2022/09/18 01:45:12;;;;;;;2.63;1.30;;;11.30;99.90;;;;;;5059182;28;21203;-82
2022/09/18 01:47:48;;;;;;;4.63;1.70;;;11.00;99.90;;;;;;5038790;28;20618;-82
2022/09/18 01:50:17;;;;;;;4.37;1.20;;;11.20;99.90;;;;;;5030955;28;20631;-83
2022/09/18 01:52:48;;;;;;;3.73;1.53;;;11.00;99.90;;;;;;5023214;28;20674;-82
2022/09/18 01:55:20;;;;;;;7.63;1.63;;;10.60;99.90;;;;;;5021995;28;20623;-82
2022/09/18 01:57:53;;;;;;;2.50;1.20;;;11.10;99.90;;;;;;5033643;28;20629;-82
2022/09/18 02:00:21;;;;;;;5.90;1.60;;;10.80;99.90;;;;;;5026152;28;20630;-82
2022/09/18 02:02:52;;;;;;;5.63;1.90;;;11.10;99.90;;;;;;5029201;28;20650;-82
2022/09/18 02:05:24;;;;;;;4.73;1.50;;;10.90;99.90;;;;;;5019770;28;20731;-83
2022/09/18 02:08:00;;;;;;;2.10;1.10;;;10.90;99.90;;;;;;5023635;28;20982;-82
2022/09/18 02:10:30;;;;;;;3.73;1.70;;;10.80;99.90;;;;;;5014352;28;21291;-83
2022/09/18 02:12:58;;;;;;;4.50;1.40;;;10.70;99.90;;;;;;5045531;28;20683;-83
2022/09/18 02:15:30;;;;;;;2.60;1.33;;;11.20;99.90;;;;;;5015173;28;21354;-83
2022/09/18 02:18:01;;;;;;;2.30;1.40;;;11.20;99.90;;;;;;5034138;28;20635;-83
2022/09/18 02:20:30;;;;;;;4.00;1.00;;;11.30;99.90;;;;;;5049120;28;20626;-83
2022/09/18 02:23:02;;;;;;;3.30;1.23;;;11.00;99.90;;;;;;5019795;28;20648;-83
2022/09/18 02:25:32;;;;;;;4.73;1.53;;;10.80;99.90;;;;;;5028014;28;20942;-82
2022/09/18 02:28:00;;;;;;;3.20;1.53;;;11.10;99.90;;;;;;5029936;28;20623;-83
2022/09/18 02:30:29;;;;;;;2.23;1.40;;;10.80;99.90;;;;;;5021711;28;20986;-83
2022/09/18 02:32:57;;;;;;;3.50;1.13;;;11.20;99.90;;;;;;5028402;28;20674;-83
2022/09/18 02:35:29;;;;;;;3.10;1.30;;;11.20;99.90;;;;;;5021397;28;20647;-83
2022/09/18 02:38:04;;;;;;;7.70;2.13;;;11.30;99.90;;;;;;5044809;28;20624;-83
2022/09/18 02:40:45;;;;;;;3.10;1.40;;;11.10;99.90;;;;;;5027917;28;20626;-83
2022/09/18 02:43:24;;;;;;;3.20;1.20;;;11.20;99.90;;;;;;5029743;28;20611;-83
2022/09/18 02:46:01;;;;;;;2.03;1.20;;;11.40;99.90;;;;;;5039604;28;20628;-83
2022/09/18 02:48:45;;;;;;;3.23;1.27;;;11.20;99.90;;;;;;5062419;28;20626;-83
2022/09/18 02:51:21;;;;;;;8.10;2.00;;;10.90;99.90;;;;;;5020576;28;20742;-83
2022/09/18 02:53:55;;;;;;;3.27;1.20;;;11.20;99.90;;;;;;5023059;28;21007;-82
2022/09/18 02:56:29;;;;;;;5.33;2.03;;;11.20;99.90;;;;;;5024178;28;20606;-81
2022/09/18 02:59:03;;;;;;;2.20;1.23;;;11.10;99.90;;;;;;5024483;28;20619;-81
2022/09/18 03:01:32;;;;;;;2.50;1.00;;;11.20;99.90;;;;;;5022890;28;20654;-83
2022/09/18 03:04:03;;;;;;;3.33;1.63;;;11.10;99.90;;;;;;5015472;28;20628;-83
2022/09/18 03:06:30;;;;;;;4.30;1.50;;;10.80;99.90;;;;;;5020568;28;20729;-82
2022/09/18 03:08:58;;;;;;;3.97;1.50;;;10.90;99.90;;;;;;5020705;28;20635;-82
2022/09/18 03:11:25;;;;;;;3.30;1.00;;;11.10;99.90;;;;;;5019285;28;20663;-83
2022/09/18 03:13:52;;;;;;;5.03;1.67;;;11.00;99.90;;;;;;5036053;28;20667;-83
2022/09/18 03:16:19;;;;;;;2.90;0.93;;;11.10;99.90;;;;;;5018901;28;20627;-82
2022/09/18 03:18:47;;;;;;;2.60;1.00;;;11.20;99.90;;;;;;5020765;28;20650;-82
2022/09/18 03:21:13;;;;;;;3.03;1.20;;;11.00;99.90;;;;;;5022141;28;21228;-81
2022/09/18 03:23:40;;;;;;;3.20;1.20;;;11.00;99.90;;;;;;5018301;28;20624;-82
2022/09/18 03:26:07;;;;;;;2.70;1.23;;;11.20;99.90;;;;;;5016038;28;20659;-82
2022/09/18 03:28:34;;;;;;;5.17;1.30;;;10.90;99.90;;;;;;5026025;28;20639;-82
2022/09/18 03:31:01;;;;;;;3.70;1.60;;;11.20;99.90;;;;;;5028743;28;20619;-83
2022/09/18 03:33:27;;;;;;;4.03;1.00;;;11.00;99.90;;;;;;5033359;28;21192;-82
2022/09/18 03:35:55;;;;;;;2.80;1.10;;;10.60;99.90;;;;;;5037557;28;20678;-83
2022/09/18 03:38:22;;;;;;;1.80;1.20;;;11.10;99.90;;;;;;5013535;28;20992;-83
2022/09/18 03:40:49;;;;;;;3.40;1.33;;;11.00;99.90;;;;;;5033936;28;20988;-83
2022/09/18 03:43:15;;;;;;;4.50;1.30;;;11.20;99.90;;;;;;5036924;28;20638;-83
2022/09/18 03:45:43;;;;;;;2.50;1.00;;;10.40;99.90;;;;;;5024623;28;21199;-83
2022/09/18 03:48:09;;;;;;;4.20;1.47;;;10.90;99.90;;;;;;5037336;28;21415;-83
2022/09/18 03:50:36;;;;;;;3.43;1.40;;;10.90;99.90;;;;;;5019663;28;20627;-82
2022/09/18 03:53:04;;;;;;;2.00;1.37;;;10.70;99.90;;;;;;5020480;28;20675;-82
2022/09/18 03:55:32;;;;;;;4.70;1.37;;;10.80;99.90;;;;;;5022071;28;20628;-83
2022/09/18 03:57:59;;;;;;;1.73;1.10;;;11.10;99.90;;;;;;5018581;28;20654;-83
2022/09/18 04:00:25;;;;;;;2.10;1.17;;;10.90;99.90;;;;;;5040618;28;20639;-83
2022/09/18 04:02:52;;;;;;;2.00;1.00;;;11.00;99.90;;;;;;5028446;28;20658;-82
2022/09/18 04:05:19;;;;;;;3.23;1.07;;;11.00;99.90;;;;;;5033559;28;20640;-82
2022/09/18 04:07:45;;;;;;;1.73;1.10;;;11.00;99.90;;;;;;5031085;28;20635;-82
2022/09/18 04:10:14;;;;;;;2.63;1.00;;;11.10;99.90;;;;;;5023628;28;20636;-82
2022/09/18 04:12:43;;;;;;;2.77;1.23;;;10.70;99.90;;;;;;5067242;28;20651;-81
2022/09/18 04:15:10;;;;;;;1.50;1.30;;;10.90;99.90;;;;;;5030752;28;21024;-82
2022/09/18 04:17:37;;;;;;;2.73;1.00;;;10.70;99.90;;;;;;5025250;28;20631;-82
2022/09/18 04:20:05;;;;;;;1.80;0.83;;;11.10;99.90;;;;;;5020844;28;20647;-82
2022/09/18 04:22:31;;;;;;;2.77;1.13;;;11.10;99.90;;;;;;5054385;28;21224;-82
2022/09/18 04:24:58;;;;;;;2.53;1.63;;;11.30;99.90;;;;;;5039567;28;20634;-82
2022/09/18 04:27:26;;;;;;;2.23;1.10;;;10.80;99.90;;;;;;5018123;28;20645;-82
2022/09/18 04:29:53;;;;;;;2.07;0.83;;;11.20;99.90;;;;;;5016124;28;20631;-82
2022/09/18 04:32:20;;;;;;;2.20;0.97;;;10.70;99.90;;;;;;5024860;28;21025;-81
2022/09/18 04:34:46;;;;;;;4.23;1.03;;;11.00;99.90;;;;;;5037364;28;20663;-82
2022/09/18 04:37:13;;;;;;;1.77;0.80;;;11.20;99.90;;;;;;5024802;28;20654;-82
2022/09/18 04:39:40;;;;;;;2.17;1.00;;;10.90;99.90;;;;;;5043558;28;20635;-82
2022/09/18 04:42:07;;;;;;;2.17;1.27;;;11.00;99.90;;;;;;5042056;28;21652;-83
2022/09/18 04:44:35;;;;;;;1.60;0.90;;;11.20;99.90;;;;;;5025067;28;20634;-82
2022/09/18 04:47:02;;;;;;;1.70;1.23;;;11.10;99.90;;;;;;5031758;28;20628;-82
2022/09/18 04:49:28;;;;;;;1.93;1.13;;;11.20;99.90;;;;;;5049301;28;20634;-82
2022/09/18 04:51:55;;;;;;;2.23;1.00;;;11.00;99.90;;;;;;5051920;28;20651;-82
2022/09/18 04:54:22;;;;;;;5.30;0.87;;;11.00;99.90;;;;;;5020694;28;20675;-83
2022/09/18 04:56:49;;;;;;;1.80;1.03;;;11.00;99.90;;;;;;5027578;28;20643;-83
2022/09/18 04:59:15;;;;;;;2.50;0.70;;;11.00;99.90;;;;;;5060285;28;20991;-83
2022/09/18 05:01:43;;;;;;;2.27;1.50;;;10.40;99.90;;;;;;5019894;28;20662;-82
2022/09/18 05:04:11;;;;;;;1.07;0.70;;;11.00;99.90;;;;;;5043919;28;20636;-82
2022/09/18 05:06:37;;;;;;;2.17;0.87;;;10.90;99.90;;;;;;5018596;28;21473;-82
2022/09/18 05:09:04;;;;;;;2.40;1.23;;;11.00;99.90;;;;;;5035528;28;20965;-83
2022/09/18 05:11:31;;;;;;;1.23;0.90;;;10.80;99.90;;;;;;5052998;28;20655;-82
2022/09/18 05:13:58;;;;;;;6.93;1.30;;;10.60;99.90;;;;;;5018941;28;20663;-82
2022/09/18 05:16:25;;;;;;;3.60;1.03;;;10.90;99.90;;;;;;5018389;28;20913;-82
2022/09/18 05:18:53;;;;;;;2.60;0.90;;;10.90;99.90;;;;;;5028203;28;20643;-82
2022/09/18 05:21:20;;;;;;;2.20;0.90;;;10.90;99.90;;;;;;5022504;28;20750;-82
2022/09/18 05:23:47;;;;;;;3.00;1.30;;;10.90;99.90;;;;;;5013421;28;20646;-82
2022/09/18 05:26:14;;;;;;;1.80;1.00;;;10.90;99.90;;;;;;5019740;28;20658;-82
2022/09/18 05:28:41;;;;;;;2.70;1.23;;;11.20;99.90;;;;;;5016550;28;20639;-83
2022/09/18 05:31:08;;;;;;;1.70;0.77;;;11.20;99.90;;;;;;5013315;28;20652;-83
2022/09/18 05:33:37;;;;;;;1.77;1.10;;;11.20;99.90;;;;;;5026757;28;20823;-83
2022/09/18 05:36:06;;;;;;;2.50;1.00;;;11.20;99.90;;;;;;5009392;28;20728;-82
2022/09/18 05:38:32;;;;;;;2.17;1.20;;;11.20;99.90;;;;;;5011853;28;20626;-83
2022/09/18 05:41:00;;;;;;;3.47;1.13;;;11.10;99.90;;;;;;5023894;28;20631;-83
2022/09/18 05:43:27;;;;;;;2.03;1.00;;;11.10;99.90;;;;;;5018784;28;20662;-83
2022/09/18 05:45:54;;;;;;;1.47;1.00;;;10.80;99.90;;;;;;5010333;28;20636;-83
2022/09/18 05:48:21;;;;;;;5.00;1.40;;;11.00;99.90;;;;;;5016629;28;20626;-82
2022/09/18 05:50:50;;;;;;;1.80;0.90;;;11.30;99.90;;;;;;5020009;28;20624;-82
2022/09/18 05:53:20;;;;;;;1.10;1.00;;;11.30;99.90;;;;;;5012309;28;20635;-84
2022/09/18 05:55:47;;;;;;;1.63;1.10;;;11.50;99.90;;;;;;5015591;28;20644;-84
2022/09/18 05:58:15;;;;;;;1.57;0.90;;;11.20;99.90;;;;;;5013055;28;20628;-84
2022/09/18 06:00:43;;;;;;;3.03;1.00;;;11.30;99.90;;;;;;5021343;28;20723;-82
2022/09/18 06:03:12;;;;;;;2.57;1.10;;;11.30;99.90;;;;;;5009821;28;20624;-83
2022/09/18 06:05:40;;;;;;;4.20;3.53;;;11.00;99.90;;;;;;5031574;28;20690;-82
2022/09/18 06:08:08;;;;;;;3.53;3.27;;;10.90;99.90;;;;;;5016018;28;20659;-83
2022/09/18 06:10:39;;;;;;;2.30;1.70;;;11.00;99.90;;;;;;5012522;28;20623;-83
2022/09/18 06:13:07;;;;;;;1.57;0.87;;;11.10;99.90;;;;;;5034541;28;20655;-82
2022/09/18 06:15:35;;;;;;;1.43;1.00;;;11.20;99.90;;;;;;5025975;28;20667;-83
2022/09/18 06:18:03;;;;;;;1.30;1.10;;;10.60;99.90;;;;;;5024869;28;21014;-82
2022/09/18 06:20:30;;;;;;;2.60;1.60;;;11.00;99.90;;;;;;5034974;28;20634;-82
2022/09/18 06:22:59;;;;;;;1.47;1.20;;;11.10;99.90;;;;;;5021548;28;20660;-83
2022/09/18 06:25:25;;;;;;;3.33;1.87;;;10.90;99.90;;;;;;5020610;28;20652;-82
2022/09/18 06:27:57;;;;;;;2.73;1.40;;;11.20;99.90;;;;;;5046109;28;20658;-82
2022/09/18 06:30:24;;;;;;;1.40;1.23;;;11.10;99.90;;;;;;5030854;28;20643;-82
2022/09/18 06:32:51;;;;;;;1.97;1.80;;;11.20;99.90;;;;;;5057914;28;20659;-82
2022/09/18 06:35:18;;;;;;;1.90;1.17;;;11.30;99.90;;;;;;5044948;28;20667;-82
2022/09/18 06:37:45;;;;;;;2.10;1.10;;;11.20;99.90;;;;;;5034020;28;20979;-82
2022/09/18 06:40:12;;;;;;;1.40;1.23;;;11.10;99.90;;;;;;5047936;28;21126;-81
2022/09/18 06:42:39;;;;;;;2.13;1.10;;;11.00;99.90;;;;;;5028940;28;20669;-82
2022/09/18 06:45:08;;;;;;;2.33;1.60;;;10.80;99.90;;;;;;5061657;28;20662;-81
2022/09/18 06:47:35;;;;;;;3.27;1.63;;;11.00;99.90;;;;;;5019020;28;20733;-82
2022/09/18 06:50:05;;;;;;;1.30;1.20;;;11.00;99.90;;;;;;5022324;28;20627;-82
2022/09/18 06:52:32;;;;;;;1.73;1.50;;;11.00;99.90;;;;;;5037208;28;21020;-81
2022/09/18 06:54:59;;;;;;;3.90;1.70;;;11.00;99.90;;;;;;5041306;28;21291;-81
2022/09/18 06:57:25;;;;;;;2.30;1.60;;;11.00;99.90;;;;;;5015536;28;20646;-81
2022/09/18 06:59:52;;;;;;;2.60;1.57;;;10.80;99.90;;;;;;5016932;28;20627;-81
2022/09/18 07:02:20;;;;;;;3.90;2.10;;;11.20;99.90;;;;;;5015313;28;20672;-81
2022/09/18 07:04:48;;;;;;;1.73;1.37;;;10.90;99.90;;;;;;5021542;28;20654;-81
2022/09/18 07:07:15;;;;;;;2.67;1.40;;;11.30;99.90;;;;;;5012247;28;20986;-81
2022/09/18 07:09:41;;;;;;;3.17;1.40;;;10.90;99.90;;;;;;5025432;28;20627;-80
2022/09/18 07:12:08;;;;;;;2.47;1.23;;;11.30;99.90;;;;;;5010703;28;21023;-80
2022/09/18 07:14:35;;;;;;;1.50;1.40;;;11.20;99.90;;;;;;5025793;28;20670;-80
2022/09/18 07:17:02;;;;;;;2.10;1.60;;;11.50;99.90;;;;;;5036805;28;20639;-80
2022/09/18 07:19:30;;;;;;;4.73;1.37;;;11.30;99.90;;;;;;5044972;28;20623;-79
2022/09/18 07:21:57;;;;;;;2.50;1.80;;;11.40;99.90;;;;;;5012133;28;20650;-82
2022/09/18 07:24:24;;;;;;;4.03;1.10;;;11.50;99.90;;;;;;5016207;28;20633;-82
2022/09/18 07:26:51;;;;;;;3.27;2.17;;;11.50;99.90;;;;;;5041286;28;20619;-82
2022/09/18 07:29:18;;;;;;;1.47;1.37;;;11.50;99.90;;;;;;5027253;28;20610;-80
2022/09/18 07:31:44;;;;;;;2.70;1.50;;;11.50;99.90;;;;;;5026679;28;21236;-82
2022/09/18 07:34:12;;;;;;;4.87;1.20;;;11.70;99.90;;;;;;5004995;28;21003;-81
2022/09/18 07:36:40;;;;;;;4.73;1.73;;;11.80;99.90;;;;;;5023934;28;20626;-81
2022/09/18 07:39:07;;;;;;;3.73;2.07;;;11.90;99.90;;;;;;5011475;28;20633;-81
2022/09/18 07:41:34;;;;;;;3.43;1.43;;;11.90;99.90;;;;;;5019452;28;20663;-80
2022/09/18 07:44:01;;;;;;;3.23;1.60;;;11.40;99.90;;;;;;5026084;28;20618;-81
2022/09/18 07:46:28;;;;;;;3.83;1.50;;;11.70;99.90;;;;;;5026183;28;20695;-81
2022/09/18 07:48:55;;;;;;;4.23;2.07;;;11.80;99.90;;;;;;5014565;28;20653;-81
2022/09/18 07:51:22;;;;;;;2.30;1.47;;;11.90;99.90;;;;;;5020151;28;20659;-81
2022/09/18 07:53:50;;;;;;;3.30;2.00;;;11.90;99.90;;;;;;5019185;28;20663;-82
2022/09/18 07:56:17;;;;;;;5.63;1.77;;;12.20;99.90;;;;;;5031451;28;20627;-82
2022/09/18 07:58:44;;;;;;;2.27;1.77;;;12.00;99.90;;;;;;5021213;27;20647;-82
2022/09/18 08:01:11;;;;;;;2.27;1.73;;;12.00;99.90;;;;;;5012982;28;20670;-82
2022/09/18 08:03:38;;;;;;;2.20;1.40;;;12.10;99.90;;;;;;5018773;28;20634;-81
2022/09/18 08:06:06;;;;;;;2.63;0.97;;;12.40;99.90;;;;;;5017713;28;21097;-82
2022/09/18 08:08:35;;;;;;;3.60;1.37;;;12.10;99.90;;;;;;5023870;28;20739;-81
2022/09/18 08:11:03;;;;;;;3.40;1.77;;;12.10;99.90;;;;;;5020690;28;21254;-81
2022/09/18 08:13:30;;;;;;;3.47;1.50;;;11.90;99.90;;;;;;5037229;28;20646;-81
2022/09/18 08:15:57;;;;;;;2.10;1.20;;;12.30;99.90;;;;;;5015174;28;20675;-81
2022/09/18 08:18:24;;;;;;;1.20;1.00;;;12.30;99.90;;;;;;5056554;28;20652;-83
2022/09/18 08:20:51;;;;;;;2.20;1.20;;;12.40;99.90;;;;;;5005717;28;20650;-83
2022/09/18 08:23:17;;;;;;;1.30;1.20;;;12.40;99.90;;;;;;5007942;28;20868;-84
2022/09/18 08:25:46;;;;;;;3.40;1.20;;;12.20;99.90;;;;;;5027959;28;20627;-82
2022/09/18 08:28:14;;;;;;;2.40;0.97;;;12.40;99.90;;;;;;5022193;28;20635;-82
2022/09/18 08:30:41;;;;;;;2.80;1.83;;;12.40;99.90;;;;;;5011343;28;20979;-82
2022/09/18 08:33:08;;;;;;;5.00;2.30;;;12.40;99.90;;;;;;5020565;28;20655;-82
2022/09/18 08:35:36;;;;;;;2.07;1.30;;;12.40;99.90;;;;;;5015091;28;20755;-82
2022/09/18 08:38:03;;;;;;;3.13;1.27;;;12.20;99.90;;;;;;5044684;28;20623;-83
2022/09/18 08:40:47;;;;;;;3.77;1.30;;;12.60;99.90;;;;;;5013537;28;20647;-83
2022/09/18 08:43:25;;;;;;;3.03;1.30;;;12.50;99.90;;;;;;5006941;28;20666;-82
2022/09/18 08:45:59;;;;;;;3.50;1.60;;;12.30;99.90;;;;;;5030406;28;20693;-83
2022/09/18 08:48:28;;;;;;;2.47;2.27;;;12.60;99.90;;;;;;5010223;28;21260;-83
2022/09/18 08:51:01;;;;;;;2.23;1.20;;;12.20;99.90;;;;;;5027592;28;20646;-83
2022/09/18 08:53:33;;;;;;;1.33;1.00;;;12.00;99.90;;;;;;5047143;28;20627;-83
2022/09/18 08:56:02;;;;;;;4.83;1.40;;;12.40;99.90;;;;;;5042002;28;20669;-83
2022/09/18 08:58:35;;;;;;;2.50;1.57;;;12.50;99.90;;;;;;5059174;28;20674;-83
2022/09/18 09:01:07;;;;;;;2.73;1.07;;;12.20;99.90;;;;;;5063170;28;21227;-82
2022/09/18 09:03:46;;;;;;;2.80;1.27;;;12.40;99.90;;;;;;5039970;28;20626;-83
2022/09/18 09:06:26;;;;;;;1.23;1.00;;;12.20;99.90;;;;;;5020327;28;20638;-83
2022/09/18 09:09:21;;;;;;;2.40;1.10;;;12.80;99.90;;;;;;5019833;28;20650;-83
2022/09/18 09:11:55;;;;;;;1.60;1.20;;;12.70;99.90;;;;;;5023325;28;21086;-82
2022/09/18 09:14:33;;;;;;;1.40;1.30;;;12.90;99.90;;;;;;5020065;28;20638;-82
2022/09/18 09:17:04;;;;;;;2.93;1.00;;;12.70;99.90;;;;;;5018813;28;20643;-83
2022/09/18 09:19:39;;;;;;;3.07;1.53;;;13.00;99.90;;;;;;5076623;28;20636;-83
2022/09/18 09:22:13;;;;;;;4.13;1.10;;;12.70;99.90;;;;;;5037529;28;20658;-82
2022/09/18 09:24:54;;;;;;;2.20;1.60;;;12.90;99.90;;;;;;5032265;28;20666;-83
2022/09/18 09:27:25;;;;;;;1.63;1.40;;;12.90;99.90;;;;;;5039082;28;20635;-83
2022/09/18 09:30:01;;;;;;;6.10;1.80;;;12.40;99.90;;;;;;5036773;28;20642;-83
2022/09/18 09:32:33;;;;;;;3.80;1.63;;;13.00;99.90;;;;;;5039343;28;21200;-83
2022/09/18 09:35:11;;;;;;;1.70;1.27;;;13.00;99.90;;;;;;5050981;28;20663;-83
2022/09/18 09:37:42;;;;;;;1.73;1.60;;;13.00;99.90;;;;;;5042416;28;21214;-83
2022/09/18 09:40:14;;;;;;;3.40;1.40;;;12.90;99.90;;;;;;5001585;28;20644;-83
2022/09/18 09:42:46;;;;;;;2.70;1.70;;;12.70;99.90;;;;;;5016153;28;20663;-83
2022/09/18 09:45:21;;;;;;;4.20;1.60;;;12.60;99.90;;;;;;5036571;28;20611;-82
2022/09/18 09:47:56;;;;;;;2.13;1.00;;;13.10;99.90;;;;;;5013920;28;20643;-82
2022/09/18 09:50:38;;;;;;;4.63;1.17;;;12.80;99.90;;;;;;5013548;28;20635;-83
2022/09/18 09:53:09;;;;;;;5.17;1.47;;;13.20;99.90;;;;;;5009296;28;20671;-83
2022/09/18 09:55:42;;;;;;;3.17;1.33;;;13.30;99.90;;;;;;5015571;28;20659;-83
2022/09/18 09:58:19;;;;;;;2.70;1.10;;;13.40;99.90;;;;;;5026907;28;20654;-83
2022/09/18 10:00:52;;;;;;;3.70;1.60;;;13.40;99.90;;;;;;5019823;28;20710;-83
2022/09/18 10:03:33;;;;;;;3.93;1.13;;;13.30;99.90;;;;;;5040517;28;20635;-83
2022/09/18 10:06:10;;;;;;;3.00;1.40;;;13.40;99.90;;;;;;5020194;28;20968;-83
2022/09/18 10:08:44;;;;;;;1.30;0.90;;;13.50;99.90;;;;;;5006443;28;21252;-83
2022/09/18 10:11:12;;;;;;;4.10;1.30;;;13.60;99.90;;;;;;5011524;28;20651;-83
2022/09/18 10:13:44;;;;;;;3.90;2.03;;;13.70;99.90;;;;;;5016980;28;20628;-84
2022/09/18 10:16:17;;;;;;;2.93;1.30;;;13.80;99.90;;;;;;5032275;28;20659;-83
2022/09/18 10:18:46;;;;;;;1.27;1.00;;;13.80;99.90;;;;;;5015394;28;20645;-84
2022/09/18 10:21:15;;;;;;;2.63;1.30;;;14.00;99.90;;;;;;5004958;28;21350;-83
2022/09/18 10:23:43;;;;;;;3.63;1.33;;;14.10;99.90;;;;;;5023604;28;20639;-83
2022/09/18 10:26:14;;;;;;;3.03;1.30;;;14.30;99.90;;;;;;5039374;28;20643;-82
2022/09/18 10:28:41;;;;;;;3.60;1.47;;;14.50;99.90;;;;;;5022869;28;20611;-83
2022/09/18 10:31:11;;;;;;;6.10;1.50;;;14.60;99.90;;;;;;5026322;28;20679;-84
2022/09/18 10:33:41;;;;;;;3.80;1.50;;;14.70;99.90;;;;;;5035328;28;20745;-83
2022/09/18 10:36:23;;;;;;;2.67;1.30;;;14.80;99.90;;;;;;5012299;28;20674;-83
2022/09/18 10:38:50;;;;;;;5.20;1.13;;;14.90;99.90;;;;;;5013882;28;20641;-83
2022/09/18 10:41:30;;;;;;;2.50;1.40;;;14.90;99.90;;;;;;5027476;28;20682;-83
2022/09/18 10:44:01;;;;;;;2.37;0.97;;;15.00;99.90;;;;;;5022448;28;20635;-83
2022/09/18 10:46:32;;;;;;;4.70;1.37;;;15.00;99.90;;;;;;5021293;28;20658;-84
2022/09/18 10:49:15;;;;;;;6.90;1.33;;;15.10;99.90;;;;;;5040731;28;20685;-84
2022/09/18 10:51:42;;;;;;;5.70;1.67;;;15.20;99.90;;;;;;5015294;28;20669;-84
2022/09/18 10:54:17;;;;;;;2.93;1.30;;;15.20;99.90;;;;;;5048971;28;20669;-84
2022/09/18 10:56:44;;;;;;;1.60;0.93;;;15.30;99.90;;;;;;5010550;28;20658;-84
2022/09/18 10:59:30;;;;;;;7.63;1.03;;;15.30;99.90;;;;;;5057286;28;20655;-82
2022/09/18 11:01:58;;;;;;;2.47;1.07;;;15.40;99.90;;;;;;5005976;28;20675;-85
2022/09/18 11:04:27;;;;;;;2.73;1.47;;;15.40;99.90;;;;;;5008914;28;20639;-84
2022/09/18 11:06:57;;;;;;;5.33;1.43;;;15.40;99.90;;;;;;5011788;28;20628;-84
2022/09/18 11:09:30;;;;;;;3.93;1.70;;;15.60;99.90;;;;;;5042708;28;20635;-84
2022/09/18 11:11:57;;;;;;;3.07;1.00;;;15.70;99.90;;;;;;5004291;28;20672;-84
2022/09/18 11:14:26;;;;;;;2.90;1.10;;;15.80;99.90;;;;;;5013415;28;20810;-84
2022/09/18 11:16:57;;;;;;;5.73;1.40;;;16.00;99.90;;;;;;5042664;28;20668;-84
2022/09/18 11:19:28;;;;;;;0.73;0.70;;;16.20;99.90;;;;;;5009697;28;20654;-84
2022/09/18 11:22:00;;;;;;;2.27;0.97;;;16.40;99.90;;;;;;5006815;28;20679;-84
2022/09/18 11:24:30;;;;;;;2.60;1.10;;;16.30;98.30;;;;;;5025577;28;20628;-84
2022/09/18 11:26:58;;;;;;;3.73;0.80;;;16.20;95.70;;;;;;5004519;28;20647;-83
2022/09/18 11:29:29;;;;;;;1.33;1.10;;;16.00;97.30;;;;;;5021096;28;20674;-84
2022/09/18 11:31:59;;;;;;;2.10;1.03;;;15.90;96.70;;;;;;5005970;28;20675;-84
2022/09/18 11:34:29;;;;;;;1.70;0.80;;;15.90;97.50;;;;;;5005232;28;20673;-84
2022/09/18 11:37:00;;;;;;;1.83;1.13;;;16.00;99.30;;;;;;5001848;28;20670;-83
2022/09/18 11:39:32;;;;;;;1.73;1.10;;;16.20;98.20;;;;;;5017254;28;20649;-84
2022/09/18 11:42:00;;;;;;;2.20;0.90;;;16.30;97.90;;;;;;5059084;28;20666;-83
2022/09/18 11:44:30;;;;;;;1.97;1.03;;;16.30;97.30;;;;;;5012072;28;20646;-83
2022/09/18 11:47:34;;;;;;;6.70;1.20;;;16.30;98.50;;;;;;5007960;28;21208;-84
2022/09/18 11:50:12;;;;;;;2.37;1.20;;;16.30;97.60;;;;;;5004642;28;20644;-81
2022/09/18 11:52:43;;;;;;;2.47;1.07;;;16.30;97.90;;;;;;5018228;28;21251;-83
2022/09/18 11:55:17;;;;;;;1.67;0.73;;;16.20;97.60;;;;;;5014550;28;20636;-83
2022/09/18 11:57:48;;;;;;;2.00;0.90;;;16.20;94.90;;;;;;5030500;28;21298;-83
2022/09/18 12:00:18;;;;;;;1.90;0.80;;;16.30;95.10;;;;;;5007594;28;20647;-82
2022/09/18 12:02:51;;;;;;;2.60;0.80;;;16.30;95.50;;;;;;4999996;28;20667;-82
2022/09/18 12:05:25;;;;;;;0.77;0.63;;;16.30;96.20;;;;;;5008453;28;20642;-82
2022/09/18 12:08:01;;;;;;;3.77;1.00;;;16.30;96.80;;;;;;4999869;28;20643;-82
2022/09/18 12:10:37;;;;;;;2.30;0.60;;;16.40;98.10;;;;;;5004217;28;20753;-83
2022/09/18 12:13:20;;;;;;;2.00;0.60;;;16.30;91.30;;;;;;5004136;28;20750;-82
2022/09/18 12:15:54;;;;;;;1.17;0.80;;;16.20;90.80;;;;;;5018865;28;20675;-83
2022/09/18 12:18:25;;;;;;;2.00;0.80;;;16.20;90.50;;;;;;5008618;28;21219;-83
2022/09/18 12:20:59;;;;;;;2.53;1.10;;;16.20;90.70;;;;;;5013458;28;20990;-84
2022/09/18 12:23:27;;;;;;;2.20;1.40;;;16.60;90.70;;;;;;5009229;28;20635;-84
2022/09/18 12:26:04;;;;;;;1.50;0.90;;;16.90;88.30;;;;;;5011199;28;20664;-83
2022/09/18 12:28:39;;;;;;;2.93;1.50;;;17.30;83.90;;;;;;5017137;28;20622;-83
2022/09/18 12:31:15;;;;;;;0.53;0.40;;;17.50;83.80;;;;;;5042755;28;20651;-83
2022/09/18 12:33:49;;;;;;;1.33;0.60;;;17.50;77.90;;;;;;5019148;28;20629;-83
2022/09/18 12:36:40;;;;;;;1.13;0.50;;;17.60;79.70;;;;;;5009605;28;20667;-82
2022/09/18 12:39:21;;;;;;;2.40;0.80;;;17.60;77.10;;;;;;5007108;28;20636;-83
2022/09/18 12:41:58;;;;;;;1.40;0.73;;;17.50;77.80;;;;;;5012381;28;20664;-83
2022/09/18 12:44:51;;;;;;;2.97;0.80;;;17.40;77.80;;;;;;5011954;28;20639;-83
2022/09/18 12:47:44;;;;;;;1.50;0.60;;;17.30;79.60;;;;;;5041582;28;21180;-81
2022/09/18 12:50:30;;;;;;;3.90;0.70;;;17.30;80.00;;;;;;5009888;28;20658;-81
2022/09/18 12:53:15;;;;;;;2.20;0.70;;;17.10;79.50;;;;;;5008590;28;21042;-80
2022/09/18 12:56:03;;;;;;;1.73;0.77;;;17.00;81.70;;;;;;5009938;28;21357;-81
2022/09/18 12:58:57;;;;;;;0.93;0.60;;;17.00;82.90;;;;;;5022509;28;20623;-80
2022/09/18 13:01:31;;;;;;;4.23;1.10;;;17.20;76.70;;;;;;5065084;28;20642;-80
2022/09/18 13:04:06;;;;;;;1.00;0.70;;;17.20;76.90;;;;;;5039864;28;21039;-80
2022/09/18 13:06:38;;;;;;;2.10;0.80;;;17.20;77.60;;;;;;5080467;28;20614;-81